createdAt,value
2023-02-14T00:01:51.147Z,92.22
2023-02-14T00:04:18.351Z,92.00
2023-02-14T00:06:45.204Z,91.84
2023-02-14T00:09:12.856Z,92.10
2023-02-14T00:11:39.709Z,93.37
2023-02-14T00:14:24.817Z,94.05
2023-02-14T00:16:51.356Z,94.36
2023-02-14T00:19:18.545Z,93.86
2023-02-14T00:21:45.048Z,92.56
2023-02-14T00:24:13.249Z,92.37
2023-02-14T00:26:39.933Z,93.89
2023-02-14T00:29:09.547Z,96.95
2023-02-14T00:31:37.280Z,96.89
2023-02-14T00:34:04.188Z,97.15
2023-02-14T00:36:30.882Z,95.49
2023-02-14T00:38:57.386Z,94.76
2023-02-14T00:41:24.076Z,94.32
2023-02-14T00:43:53.934Z,94.05
2023-02-14T00:46:21.621Z,93.60
2023-02-14T00:48:48.108Z,93.76
2023-02-14T00:51:15.153Z,93.94
2023-02-14T00:53:41.873Z,94.73
2023-02-14T00:56:08.419Z,94.63
2023-02-14T00:58:35.506Z,93.80
2023-02-14T01:01:02.448Z,93.05
2023-02-14T01:03:29.366Z,93.83
2023-02-14T01:05:56.532Z,93.80
2023-02-14T01:08:23.560Z,94.25
2023-02-14T01:10:50.130Z,93.81
2023-02-14T01:13:16.779Z,94.95
2023-02-14T01:15:44.840Z,94.72
2023-02-14T01:18:11.594Z,93.90
2023-02-14T01:20:38.081Z,93.90
2023-02-14T01:23:04.569Z,93.72
2023-02-14T01:25:31.086Z,93.48
2023-02-14T01:27:59.088Z,92.76
2023-02-14T01:30:25.689Z,93.79
2023-02-14T01:32:52.297Z,93.70
2023-02-14T01:35:18.778Z,93.27
2023-02-14T01:37:45.285Z,93.25
2023-02-14T01:40:12.193Z,92.79
2023-02-14T01:42:38.662Z,92.37
2023-02-14T01:45:09.210Z,92.84
2023-02-14T01:47:38.798Z,92.95
2023-02-14T01:50:10.905Z,94.09
2023-02-14T01:52:41.784Z,93.65
2023-02-14T01:55:12.408Z,92.96
2023-02-14T01:57:55.468Z,93.47
2023-02-14T02:00:40.609Z,93.68
2023-02-14T02:03:08.026Z,93.86
2023-02-14T02:05:37.940Z,92.38
2023-02-14T02:08:04.476Z,93.13
2023-02-14T02:10:30.978Z,93.55
2023-02-14T02:12:59.935Z,93.88
2023-02-14T02:15:27.135Z,93.81
2023-02-14T02:18:04.640Z,93.87
2023-02-14T02:20:31.522Z,93.23
2023-02-14T02:22:57.953Z,93.20
2023-02-14T02:25:36.762Z,93.40
2023-02-14T02:28:03.438Z,93.28
2023-02-14T02:30:33.167Z,92.62
2023-02-14T02:32:59.719Z,92.66
2023-02-14T02:35:41.302Z,92.10
2023-02-14T02:38:23.021Z,92.83
2023-02-14T02:41:01.212Z,92.88
2023-02-14T02:43:35.795Z,92.44
2023-02-14T02:46:40.901Z,92.69
2023-02-14T02:49:12.040Z,93.30
2023-02-14T02:52:10.411Z,92.64
2023-02-14T02:54:46.690Z,93.59
2023-02-14T02:57:17.209Z,93.55
2023-02-14T02:59:45.256Z,93.40
2023-02-14T03:02:16.175Z,93.89
2023-02-14T03:04:53.492Z,92.41
2023-02-14T03:07:35.488Z,93.36
2023-02-14T03:10:13.482Z,93.56
2023-02-14T03:12:49.140Z,94.31
2023-02-14T03:15:35.878Z,94.09
2023-02-14T03:18:13.997Z,94.43
2023-02-14T03:20:46.459Z,94.53
2023-02-14T03:23:25.915Z,93.67
2023-02-14T03:26:14.099Z,93.50
2023-02-14T03:28:47.825Z,93.30
2023-02-14T03:31:27.084Z,93.39
2023-02-14T03:34:00.248Z,93.17
2023-02-14T03:36:32.337Z,94.22
2023-02-14T03:38:58.984Z,93.83
2023-02-14T03:41:28.986Z,93.58
2023-02-14T03:43:58.903Z,93.16
2023-02-14T03:46:28.519Z,93.50
2023-02-14T03:48:56.493Z,92.45
2023-02-14T03:51:24.066Z,92.33
2023-02-14T03:53:53.529Z,92.96
2023-02-14T03:56:29.238Z,93.08
2023-02-14T03:58:58.301Z,92.42
2023-02-14T04:01:29.205Z,92.50
2023-02-14T04:03:56.997Z,92.86
2023-02-14T04:06:23.585Z,92.87
2023-02-14T04:08:50.075Z,92.51
2023-02-14T04:11:16.624Z,93.28
2023-02-14T04:13:43.089Z,93.62
2023-02-14T04:16:09.633Z,92.34
2023-02-14T04:18:54.628Z,92.96
2023-02-14T04:21:21.101Z,93.17
2023-02-14T04:23:47.626Z,92.57
2023-02-14T04:26:14.072Z,92.68
2023-02-14T04:28:40.530Z,92.68
2023-02-14T04:31:07.450Z,93.04
2023-02-14T04:33:34.329Z,92.61
2023-02-14T04:36:00.789Z,92.73
2023-02-14T04:38:27.326Z,92.20
2023-02-14T04:40:53.866Z,92.05
2023-02-14T04:43:20.415Z,91.12
2023-02-14T04:45:47.367Z,91.54
2023-02-14T04:48:13.928Z,91.20
2023-02-14T04:50:40.479Z,91.58
2023-02-14T04:53:07.062Z,91.23
2023-02-14T04:55:33.529Z,90.49
2023-02-14T04:57:59.974Z,91.79
2023-02-14T05:00:26.519Z,91.16
2023-02-14T05:02:52.945Z,92.04
2023-02-14T05:05:19.420Z,92.11
2023-02-14T05:07:47.767Z,92.25
2023-02-14T05:10:14.804Z,92.87
2023-02-14T05:12:41.352Z,93.92
2023-02-14T05:15:08.013Z,93.38
2023-02-14T05:17:34.497Z,93.80
2023-02-14T05:20:00.948Z,93.09
2023-02-14T05:22:27.418Z,93.92
2023-02-14T05:24:53.862Z,93.73
2023-02-14T05:27:20.291Z,93.30
2023-02-14T05:29:46.868Z,92.67
2023-02-14T05:32:13.350Z,93.28
2023-02-14T05:34:39.853Z,93.30
2023-02-14T05:37:06.323Z,92.57
2023-02-14T05:39:32.800Z,92.12
2023-02-14T05:41:59.532Z,91.94
2023-02-14T05:44:26.108Z,92.16
2023-02-14T05:46:52.604Z,91.60
2023-02-14T05:49:19.113Z,92.33
2023-02-14T05:51:45.557Z,92.03
2023-02-14T05:54:12.235Z,92.52
2023-02-14T05:56:38.725Z,92.20
2023-02-14T05:59:05.137Z,92.53
2023-02-14T06:01:31.829Z,93.96
2023-02-14T06:03:58.290Z,93.96
2023-02-14T06:06:24.873Z,93.81
2023-02-14T06:08:51.439Z,92.86
2023-02-14T06:11:17.903Z,93.34
2023-02-14T06:13:44.521Z,92.99
2023-02-14T06:16:11.007Z,93.99
2023-02-14T06:18:37.515Z,94.05
2023-02-14T06:21:04.002Z,93.22
2023-02-14T06:23:30.554Z,91.20
2023-02-14T06:25:56.958Z,90.78
2023-02-14T06:28:23.389Z,89.22
2023-02-14T06:30:50.024Z,89.01
2023-02-14T06:33:16.658Z,87.95
2023-02-14T06:35:43.129Z,88.18
2023-02-14T06:38:09.588Z,89.50
2023-02-14T06:40:36.005Z,86.13
2023-02-14T06:43:02.515Z,88.33
2023-02-14T06:45:28.992Z,90.40
2023-02-14T06:47:55.551Z,90.84
2023-02-14T06:50:22.228Z,91.03
2023-02-14T06:52:48.814Z,91.58
2023-02-14T06:55:15.339Z,92.49
2023-02-14T06:57:41.853Z,92.38
2023-02-14T07:00:08.775Z,90.62
2023-02-14T07:02:35.367Z,89.84
2023-02-14T07:05:01.886Z,89.26
2023-02-14T07:07:28.372Z,90.35
2023-02-14T07:09:54.848Z,89.21
2023-02-14T07:12:21.281Z,89.57
2023-02-14T07:14:47.755Z,88.63
2023-02-14T07:17:14.189Z,88.76
2023-02-14T07:19:40.602Z,86.90
2023-02-14T07:22:07.194Z,85.12
2023-02-14T07:24:33.666Z,83.02
2023-02-14T07:27:00.230Z,81.42
2023-02-14T07:29:26.698Z,77.87
2023-02-14T07:31:53.248Z,75.00
2023-02-14T07:34:19.750Z,75.64
2023-02-14T07:36:46.812Z,76.88
2023-02-14T07:39:13.468Z,73.05
2023-02-14T07:41:39.989Z,72.66
2023-02-14T07:44:09.952Z,70.94
2023-02-14T07:46:36.524Z,67.91
2023-02-14T07:49:03.183Z,67.16
2023-02-14T07:51:29.627Z,71.39
2023-02-14T07:53:56.143Z,69.59
2023-02-14T07:56:22.679Z,68.33
2023-02-14T07:58:49.882Z,64.49
2023-02-14T08:01:16.936Z,63.62
2023-02-14T08:03:49.396Z,60.91
2023-02-14T08:06:16.501Z,57.88
2023-02-14T08:08:42.940Z,59.31
2023-02-14T08:11:09.406Z,61.88
2023-02-14T08:13:35.913Z,60.58
2023-02-14T08:16:05.620Z,60.06
2023-02-14T08:18:33.840Z,59.02
2023-02-14T08:21:00.666Z,59.20
2023-02-14T08:23:27.444Z,61.49
2023-02-14T08:25:54.239Z,57.93
2023-02-14T08:28:23.595Z,58.17
2023-02-14T08:30:50.767Z,58.30
2023-02-14T08:33:17.292Z,58.99
2023-02-14T08:35:43.820Z,58.76
2023-02-14T08:38:10.310Z,60.61
2023-02-14T08:40:41.558Z,61.91
2023-02-14T08:43:08.343Z,61.84
2023-02-14T08:45:34.889Z,64.70
2023-02-14T08:48:05.506Z,61.10
2023-02-14T08:50:32.176Z,57.82
2023-02-14T08:52:58.908Z,59.04
2023-02-14T08:55:26.374Z,58.50
2023-02-14T08:57:54.585Z,58.88
2023-02-14T09:00:21.388Z,59.46
2023-02-14T09:02:50.626Z,59.75
2023-02-14T09:05:17.236Z,59.98
2023-02-14T09:07:43.699Z,57.88
2023-02-14T09:10:10.365Z,57.99
2023-02-14T09:12:39.106Z,55.49
2023-02-14T09:15:05.775Z,57.55
2023-02-14T09:17:32.304Z,58.58
2023-02-14T09:19:58.810Z,57.43
2023-02-14T09:22:25.491Z,56.52
2023-02-14T09:24:51.996Z,58.90
2023-02-14T09:27:18.554Z,57.75
2023-02-14T09:29:45.005Z,55.07
2023-02-14T09:32:11.517Z,55.62
2023-02-14T09:34:38.086Z,54.82
2023-02-14T09:37:23.290Z,52.39
2023-02-14T09:39:49.804Z,54.14
2023-02-14T09:42:25.450Z,55.02
2023-02-14T09:44:58.020Z,50.67
2023-02-14T09:47:39.912Z,51.96
2023-02-14T09:50:13.840Z,49.43
2023-02-14T09:52:40.357Z,47.99
2023-02-14T09:55:13.061Z,48.57
2023-02-14T09:57:46.813Z,48.33
2023-02-14T10:00:36.711Z,50.04
2023-02-14T10:03:15.431Z,50.97
2023-02-14T10:05:47.411Z,49.09
2023-02-14T10:08:32.340Z,48.58
2023-02-14T10:11:07.114Z,52.31
2023-02-14T10:13:38.665Z,52.71
2023-02-14T10:16:26.735Z,50.23
2023-02-14T10:19:02.904Z,50.00
2023-02-14T10:21:33.549Z,47.87
2023-02-14T10:24:20.245Z,48.65
2023-02-14T10:26:48.105Z,50.65
2023-02-14T10:29:15.984Z,49.65
2023-02-14T10:31:55.696Z,48.23
2023-02-14T10:34:22.312Z,47.13
2023-02-14T10:36:48.773Z,46.17
2023-02-14T10:39:15.185Z,47.16
2023-02-14T10:41:45.020Z,48.47
2023-02-14T10:44:30.614Z,47.95
2023-02-14T10:46:57.056Z,46.58
2023-02-14T10:49:23.488Z,47.13
2023-02-14T10:51:52.981Z,49.80
2023-02-14T10:54:25.805Z,49.23
2023-02-14T10:56:52.225Z,48.33
2023-02-14T10:59:22.117Z,48.69
2023-02-14T11:01:49.812Z,48.36
2023-02-14T11:04:17.084Z,51.17
2023-02-14T11:06:43.644Z,48.52
2023-02-14T11:09:12.120Z,47.58
2023-02-14T11:11:55.664Z,47.65
2023-02-14T11:14:25.382Z,47.03
2023-02-14T11:16:52.889Z,44.78
2023-02-14T11:19:24.643Z,45.26
2023-02-14T11:21:51.913Z,46.85
2023-02-14T11:24:18.339Z,46.34
2023-02-14T11:26:46.322Z,45.69
2023-02-14T11:29:14.642Z,45.57
2023-02-14T11:31:42.062Z,45.09
2023-02-14T11:34:26.168Z,43.95
2023-02-14T11:36:53.572Z,44.75
2023-02-14T11:39:30.715Z,42.78
2023-02-14T11:41:59.254Z,43.99
2023-02-14T11:44:28.028Z,45.42
2023-02-14T11:46:56.267Z,43.94
2023-02-14T11:49:28.417Z,43.10
2023-02-14T11:51:55.613Z,44.75
2023-02-14T11:54:28.173Z,44.43
2023-02-14T11:56:56.501Z,45.20
2023-02-14T11:59:42.809Z,44.94
2023-02-14T12:02:27.937Z,44.54
2023-02-14T12:05:00.691Z,44.33
2023-02-14T12:07:36.055Z,42.31
2023-02-14T12:10:09.122Z,41.66
2023-02-14T12:12:35.910Z,42.10
2023-02-14T12:15:24.102Z,43.46
2023-02-14T12:17:59.101Z,43.92
2023-02-14T12:20:37.629Z,43.99
2023-02-14T12:23:21.022Z,43.68
2023-02-14T12:25:54.378Z,43.62
2023-02-14T12:28:31.551Z,43.62
2023-02-14T12:30:58.640Z,43.58
2023-02-14T12:33:26.019Z,44.27
2023-02-14T12:36:11.489Z,43.99
2023-02-14T12:38:46.995Z,41.80
2023-02-14T12:41:33.733Z,41.65
2023-02-14T12:44:03.259Z,42.50
2023-02-14T12:47:02.616Z,41.36
2023-02-14T12:49:34.574Z,44.40
2023-02-14T12:52:07.189Z,42.14
2023-02-14T12:54:42.783Z,41.88
2023-02-14T12:57:12.142Z,41.56
2023-02-14T12:59:47.462Z,41.73
2023-02-14T13:02:23.110Z,41.57
2023-02-14T13:05:08.674Z,43.63
2023-02-14T13:07:43.401Z,42.54
2023-02-14T13:10:22.098Z,40.41
2023-02-14T13:12:56.134Z,41.42
2023-02-14T13:15:34.961Z,40.91
2023-02-14T13:18:13.593Z,41.56
2023-02-14T13:20:42.804Z,39.83
2023-02-14T13:23:15.753Z,40.88
2023-02-14T13:25:49.782Z,37.60
2023-02-14T13:28:17.393Z,38.99
2023-02-14T13:30:43.919Z,38.17
2023-02-14T13:33:28.451Z,38.58
2023-02-14T13:35:56.908Z,39.39
2023-02-14T13:38:24.410Z,39.37
2023-02-14T13:40:51.243Z,38.94
2023-02-14T13:43:36.320Z,40.13
2023-02-14T13:46:02.864Z,40.08
2023-02-14T13:48:29.531Z,39.01
2023-02-14T13:51:06.497Z,39.28
2023-02-14T13:53:37.808Z,38.99
2023-02-14T13:56:15.267Z,39.02
2023-02-14T13:58:47.917Z,39.82
2023-02-14T14:01:26.865Z,41.99
2023-02-14T14:03:55.394Z,40.79
2023-02-14T14:06:22.060Z,40.99
2023-02-14T14:08:50.013Z,41.17
2023-02-14T14:11:22.481Z,41.16
2023-02-14T14:13:59.865Z,40.35
2023-02-14T14:16:28.314Z,40.49
2023-02-14T14:19:06.960Z,41.13
2023-02-14T14:21:37.868Z,41.78
2023-02-14T14:24:16.739Z,43.07
2023-02-14T14:26:45.550Z,41.41
2023-02-14T14:29:30.348Z,41.25
2023-02-14T14:31:57.106Z,41.04
2023-02-14T14:34:25.333Z,41.85
2023-02-14T14:37:05.452Z,42.19
2023-02-14T14:39:33.475Z,42.16
2023-02-14T14:42:14.898Z,42.82
2023-02-14T14:44:50.255Z,44.21
2023-02-14T14:47:18.183Z,44.10
2023-02-14T14:49:44.903Z,44.60
2023-02-14T14:52:27.615Z,44.71
2023-02-14T14:54:54.205Z,45.19
2023-02-14T14:57:21.373Z,44.32
2023-02-14T14:59:49.424Z,44.39
2023-02-14T15:02:23.228Z,44.10
2023-02-14T15:04:49.737Z,45.65
2023-02-14T15:07:27.518Z,45.82
2023-02-14T15:09:53.999Z,45.64
2023-02-14T15:12:41.054Z,46.12
2023-02-14T15:15:10.042Z,46.74
2023-02-14T15:17:37.064Z,48.21
2023-02-14T15:20:07.639Z,47.23
2023-02-14T15:22:40.902Z,47.21
2023-02-14T15:25:12.730Z,48.14
2023-02-14T15:27:42.751Z,47.80
2023-02-14T15:30:23.566Z,48.73
2023-02-14T15:32:50.976Z,50.55
2023-02-14T15:35:21.478Z,50.40
2023-02-14T15:37:48.721Z,50.50
2023-02-14T15:40:25.495Z,52.10
2023-02-14T15:42:57.256Z,54.76
2023-02-14T15:45:27.755Z,56.15
2023-02-14T15:47:54.279Z,59.28
2023-02-14T15:50:24.388Z,60.39
2023-02-14T15:52:52.369Z,61.33
2023-02-14T15:55:21.942Z,62.43
2023-02-14T15:57:54.540Z,63.58
2023-02-14T16:00:21.986Z,63.20
2023-02-14T16:02:54.077Z,64.63
2023-02-14T16:05:21.772Z,63.84
2023-02-14T16:08:03.594Z,66.04
2023-02-14T16:10:31.870Z,66.36
2023-02-14T16:13:06.572Z,67.07
2023-02-14T16:15:34.060Z,68.60
2023-02-14T16:18:06.952Z,69.18
2023-02-14T16:20:34.412Z,68.22
2023-02-14T16:23:16.124Z,67.84
2023-02-14T16:25:42.571Z,69.20
2023-02-14T16:28:09.190Z,69.79
2023-02-14T16:30:36.645Z,69.82
2023-02-14T16:33:03.269Z,70.56
2023-02-14T16:35:31.243Z,70.53
2023-02-14T16:37:57.755Z,72.27
2023-02-14T16:40:26.291Z,71.54
2023-02-14T16:42:53.073Z,72.04
2023-02-14T16:45:19.638Z,73.81
2023-02-14T16:47:46.792Z,74.35
2023-02-14T16:50:13.721Z,73.82
2023-02-14T16:52:40.611Z,73.77
2023-02-14T16:55:07.495Z,74.74
2023-02-14T16:57:39.809Z,75.44
2023-02-14T17:00:07.048Z,74.86
2023-02-14T17:02:34.301Z,73.64
2023-02-14T17:05:00.859Z,74.82
2023-02-14T17:07:29.148Z,75.57
2023-02-14T17:09:58.674Z,75.35
2023-02-14T17:12:27.344Z,75.68
2023-02-14T17:14:57.207Z,75.35
2023-02-14T17:17:24.100Z,75.33
2023-02-14T17:19:52.737Z,75.37
2023-02-14T17:22:19.714Z,75.77
2023-02-14T17:24:46.187Z,76.38
2023-02-14T17:27:12.804Z,76.52
2023-02-14T17:29:39.255Z,76.47
2023-02-14T17:32:05.752Z,76.23
2023-02-14T17:34:33.029Z,77.09
2023-02-14T17:36:59.714Z,77.83
2023-02-14T17:39:26.434Z,78.47
2023-02-14T17:41:53.146Z,77.54
2023-02-14T17:44:19.609Z,78.07
2023-02-14T17:46:46.250Z,77.56
2023-02-14T17:49:12.826Z,77.59
2023-02-14T17:51:39.535Z,77.16
2023-02-14T17:54:06.177Z,78.52
2023-02-14T17:56:32.655Z,78.24
2023-02-14T17:58:59.901Z,77.84
2023-02-14T18:01:27.648Z,78.50
2023-02-14T18:03:54.713Z,78.03
2023-02-14T18:06:21.387Z,78.40
2023-02-14T18:08:57.967Z,78.49
2023-02-14T18:11:25.987Z,78.74
2023-02-14T18:13:56.395Z,79.51
2023-02-14T18:16:24.805Z,79.53
2023-02-14T18:18:51.792Z,80.28
2023-02-14T18:21:20.896Z,81.19
2023-02-14T18:23:47.722Z,80.40
2023-02-14T18:26:15.246Z,81.38
2023-02-14T18:28:41.818Z,80.75
2023-02-14T18:31:12.764Z,81.52
2023-02-14T18:33:39.779Z,82.21
2023-02-14T18:36:08.225Z,82.84
2023-02-14T18:38:34.987Z,82.54
2023-02-14T18:41:02.560Z,83.95
2023-02-14T18:43:29.194Z,83.24
2023-02-14T18:45:55.696Z,82.23
2023-02-14T18:48:22.742Z,82.53
2023-02-14T18:50:50.491Z,82.23
2023-02-14T18:53:17.819Z,81.58
2023-02-14T18:55:44.302Z,80.92
2023-02-14T18:58:10.775Z,81.82
2023-02-14T19:00:37.272Z,82.83
2023-02-14T19:03:03.837Z,83.24
2023-02-14T19:05:30.376Z,83.60
2023-02-14T19:07:58.882Z,83.37
2023-02-14T19:10:25.390Z,83.21
2023-02-14T19:12:52.521Z,83.24
2023-02-14T19:15:19.169Z,82.22
2023-02-14T19:17:45.683Z,82.08
2023-02-14T19:20:12.566Z,82.52
2023-02-14T19:22:39.949Z,82.24
2023-02-14T19:25:06.499Z,84.54
2023-02-14T19:27:34.011Z,87.67
2023-02-14T19:30:01.154Z,89.45
2023-02-14T19:32:27.933Z,88.41
2023-02-14T19:34:54.531Z,82.64
2023-02-14T19:37:21.020Z,83.99
2023-02-14T19:39:47.852Z,85.21
2023-02-14T19:42:14.345Z,85.90
2023-02-14T19:44:40.854Z,85.16
2023-02-14T19:47:23.321Z,86.11
2023-02-14T19:49:53.735Z,87.59
2023-02-14T19:52:26.792Z,87.78
2023-02-14T19:54:55.540Z,88.53
2023-02-14T19:57:22.020Z,88.16
2023-02-14T19:59:48.617Z,87.62
2023-02-14T20:02:15.979Z,87.84
2023-02-14T20:04:42.941Z,87.71
2023-02-14T20:07:09.516Z,86.84
2023-02-14T20:09:37.621Z,87.14
2023-02-14T20:12:04.269Z,87.86
2023-02-14T20:14:38.411Z,87.85
2023-02-14T20:17:14.951Z,87.10
2023-02-14T20:19:41.433Z,87.27
2023-02-14T20:22:08.334Z,87.56
2023-02-14T20:24:34.854Z,88.52
2023-02-14T20:27:02.350Z,88.72
2023-02-14T20:29:29.245Z,86.96
2023-02-14T20:31:58.153Z,87.83
2023-02-14T20:34:24.793Z,87.60
2023-02-14T20:36:55.770Z,88.91
2023-02-14T20:39:26.547Z,89.01
2023-02-14T20:41:54.045Z,89.05
2023-02-14T20:44:21.552Z,88.52
2023-02-14T20:46:49.165Z,88.99
2023-02-14T20:49:15.971Z,89.94
2023-02-14T20:51:42.562Z,90.29
2023-02-14T20:54:09.204Z,90.88
2023-02-14T20:56:35.737Z,90.01
2023-02-14T20:59:02.252Z,90.73
2023-02-14T21:01:29.067Z,89.82
2023-02-14T21:03:56.021Z,89.75
2023-02-14T21:06:23.868Z,89.46
2023-02-14T21:08:50.483Z,89.26
2023-02-14T21:11:18.665Z,89.04
2023-02-14T21:13:45.190Z,91.12
2023-02-14T21:16:14.953Z,91.67
2023-02-14T21:18:41.899Z,91.07
2023-02-14T21:21:12.420Z,91.09
2023-02-14T21:23:39.281Z,90.57
2023-02-14T21:26:05.730Z,91.02
2023-02-14T21:28:34.172Z,91.41
2023-02-14T21:31:04.841Z,90.50
2023-02-14T21:33:33.006Z,90.70
2023-02-14T21:36:09.298Z,90.14
2023-02-14T21:38:36.417Z,90.62
2023-02-14T21:41:07.664Z,90.84
2023-02-14T21:43:35.082Z,92.10
2023-02-14T21:46:05.829Z,93.13
2023-02-14T21:48:51.172Z,91.96
2023-02-14T21:51:17.877Z,91.64
2023-02-14T21:53:44.836Z,91.71
2023-02-14T21:56:12.510Z,91.66
2023-02-14T21:58:39.059Z,92.02
2023-02-14T22:01:06.130Z,92.15
2023-02-14T22:03:33.097Z,91.76
2023-02-14T22:06:06.887Z,91.33
2023-02-14T22:08:34.378Z,92.06
2023-02-14T22:11:04.782Z,91.62
2023-02-14T22:13:31.314Z,92.22
2023-02-14T22:16:02.368Z,91.96
2023-02-14T22:18:29.098Z,91.38
2023-02-14T22:21:02.443Z,91.78
2023-02-14T22:23:30.722Z,91.98
2023-02-14T22:25:58.640Z,92.16
2023-02-14T22:28:25.448Z,93.86
2023-02-14T22:30:52.046Z,93.29
2023-02-14T22:33:18.558Z,93.46
2023-02-14T22:35:45.036Z,93.38
2023-02-14T22:38:12.111Z,93.72
2023-02-14T22:40:39.341Z,93.65
2023-02-14T22:43:05.799Z,93.68
2023-02-14T22:45:32.300Z,93.75
2023-02-14T22:47:58.751Z,93.27
2023-02-14T22:50:25.210Z,94.12
2023-02-14T22:52:51.673Z,93.67
2023-02-14T22:55:19.137Z,93.98
2023-02-14T22:57:45.591Z,93.95
2023-02-14T23:00:12.306Z,94.47
2023-02-14T23:02:39.088Z,94.68
2023-02-14T23:05:05.857Z,94.21
2023-02-14T23:07:32.348Z,94.55
2023-02-14T23:09:58.932Z,94.97
2023-02-14T23:12:44.086Z,95.71
2023-02-14T23:15:29.257Z,95.47
2023-02-14T23:18:14.471Z,96.03
2023-02-14T23:20:59.833Z,96.02
2023-02-14T23:23:30.266Z,96.00
2023-02-14T23:25:56.872Z,96.10
2023-02-14T23:28:23.331Z,96.38
2023-02-14T23:30:49.820Z,96.49
2023-02-14T23:33:16.419Z,96.57
2023-02-14T23:35:43.078Z,96.42
2023-02-14T23:38:09.630Z,96.02
2023-02-14T23:40:56.065Z,95.68
2023-02-14T23:43:22.705Z,95.91
2023-02-14T23:45:49.329Z,95.58
2023-02-14T23:48:15.861Z,92.47
2023-02-14T23:50:42.352Z,93.81
2023-02-14T23:53:08.841Z,95.57
2023-02-14T23:55:35.509Z,95.50
2023-02-14T23:58:02.024Z,95.23
